createdAt,value
2023-01-23T00:29:08.251Z,1023.27
2023-01-23T00:29:48.579Z,1023.27
2023-01-23T00:30:29.077Z,1023.31
2023-01-23T00:31:09.690Z,1023.31
2023-01-23T00:31:50.143Z,1023.34
2023-01-23T00:32:30.556Z,1023.31
2023-01-23T00:33:11.058Z,1023.33
2023-01-23T00:33:51.521Z,1023.28
2023-01-23T00:34:32.032Z,1023.26
2023-01-23T00:35:12.467Z,1023.25
2023-01-23T00:35:52.967Z,1023.23
2023-01-23T00:36:33.476Z,1023.26
2023-01-23T00:37:14.014Z,1023.24
2023-01-23T00:37:54.513Z,1023.27
2023-01-23T00:38:35.008Z,1023.24
2023-01-23T00:39:15.515Z,1023.28
2023-01-23T00:39:56.023Z,1023.27
2023-01-23T00:40:36.508Z,1023.29
2023-01-23T00:41:17.005Z,1023.28
2023-01-23T00:41:57.512Z,1023.32
2023-01-23T00:42:37.991Z,1023.33
2023-01-23T00:43:18.484Z,1023.36
2023-01-23T00:43:58.987Z,1023.37
2023-01-23T00:44:39.591Z,1023.31
2023-01-23T00:45:19.953Z,1023.35
2023-01-23T00:46:00.477Z,1023.34
2023-01-23T00:46:40.957Z,1023.33
2023-01-23T00:47:21.407Z,1023.34
2023-01-23T00:48:42.380Z,1023.34
2023-01-23T00:49:24.657Z,1023.34
2023-01-23T00:50:03.306Z,1023.36
2023-01-23T00:50:43.785Z,1023.35
2023-01-23T00:51:24.378Z,1023.37
2023-01-23T00:52:04.730Z,1023.38
2023-01-23T00:55:23.508Z,1023.43
2023-01-23T00:56:03.978Z,1023.46
2023-01-23T00:56:44.497Z,1023.43
2023-01-23T00:57:24.986Z,1023.43
2023-01-23T00:58:05.509Z,1023.45
2023-01-23T00:58:45.964Z,1023.47
2023-01-23T00:59:26.421Z,1023.47
2023-01-23T01:00:07.042Z,1023.49
2023-01-23T01:00:47.413Z,1023.51
2023-01-23T01:01:27.948Z,1023.5
2023-01-23T01:02:08.383Z,1023.51
2023-01-23T01:02:48.928Z,1023.52
2023-01-23T01:03:29.384Z,1023.51
2023-01-23T01:04:09.895Z,1023.5
2023-01-23T01:04:50.364Z,1023.51
2023-01-23T01:05:30.878Z,1023.51
2023-01-23T01:06:11.316Z,1023.48
2023-01-23T01:06:51.819Z,1023.43
2023-01-23T01:07:32.301Z,1023.48
2023-01-23T01:08:12.793Z,1023.42
2023-01-23T01:08:53.284Z,1023.46
2023-01-23T01:09:33.760Z,1023.48
2023-01-23T01:10:14.252Z,1023.51
2023-01-23T01:10:54.751Z,1023.5
2023-01-23T01:11:35.206Z,1023.48
2023-01-23T01:12:15.698Z,1023.52
2023-01-23T01:12:56.210Z,1023.45
2023-01-23T01:13:36.743Z,1023.48
2023-01-23T01:14:17.211Z,1023.49
2023-01-23T01:14:57.691Z,1023.49
2023-01-23T01:15:38.291Z,1023.44
2023-01-23T01:16:18.660Z,1023.46
2023-01-23T01:16:59.127Z,1023.45
2023-01-23T01:17:39.598Z,1023.48
2023-01-23T01:18:20.068Z,1023.46
2023-01-23T01:19:00.552Z,1023.43
2023-01-23T01:19:41.035Z,1023.46
2023-01-23T01:20:21.901Z,1023.47
2023-01-23T01:21:02.000Z,1023.43
2023-01-23T01:21:42.468Z,1023.47
2023-01-23T01:22:22.932Z,1023.51
2023-01-23T01:23:43.907Z,1023.59
2023-01-23T01:24:24.381Z,1023.59
2023-01-23T01:25:04.858Z,1023.54
2023-01-23T01:25:45.343Z,1023.58
2023-01-23T01:26:25.825Z,1023.61
2023-01-23T01:27:06.313Z,1023.56
2023-01-23T01:27:46.832Z,1023.57
2023-01-23T01:28:27.304Z,1023.57
2023-01-23T01:29:07.778Z,1023.55
2023-01-23T01:29:48.343Z,1023.53
2023-01-23T01:30:28.737Z,1023.5
2023-01-23T01:31:09.501Z,1023.5
2023-01-23T01:31:49.741Z,1023.46
2023-01-23T01:32:30.211Z,1023.46
2023-01-23T01:33:10.705Z,1023.47
2023-01-23T01:33:51.207Z,1023.5
2023-01-23T01:34:31.708Z,1023.51
2023-01-23T01:35:12.260Z,1023.48
2023-01-23T01:35:52.673Z,1023.55
2023-01-23T01:36:33.152Z,1023.51
2023-01-23T01:37:13.662Z,1023.48
2023-01-23T01:37:54.167Z,1023.51
2023-01-23T01:38:34.632Z,1023.54
2023-01-23T01:39:15.129Z,1023.61
2023-01-23T01:39:55.632Z,1023.59
2023-01-23T01:40:36.104Z,1023.62
2023-01-23T01:41:16.591Z,1023.64
2023-01-23T01:41:57.059Z,1023.61
2023-01-23T01:42:37.548Z,1023.64
2023-01-23T01:43:58.496Z,1023.63
2023-01-23T01:44:39.007Z,1023.63
2023-01-23T01:45:19.515Z,1023.65
2023-01-23T01:46:00.002Z,1023.6
2023-01-23T01:46:40.604Z,1023.63
2023-01-23T01:47:20.966Z,1023.6
2023-01-23T01:48:01.547Z,1023.6
2023-01-23T01:48:41.968Z,1023.64
2023-01-23T01:49:22.449Z,1023.62
2023-01-23T01:50:02.925Z,1023.65
2023-01-23T01:50:43.440Z,1023.67
2023-01-23T01:51:23.994Z,1023.67
2023-01-23T01:52:04.398Z,1023.66
2023-01-23T01:52:44.914Z,1023.65
2023-01-23T01:53:25.435Z,1023.67
2023-01-23T01:54:05.912Z,1023.65
2023-01-23T01:54:46.362Z,1023.63
2023-01-23T01:55:26.836Z,1023.66
2023-01-23T01:56:07.294Z,1023.63
2023-01-23T01:56:47.761Z,1023.64
2023-01-23T01:57:29.003Z,1023.69
2023-01-23T01:58:08.731Z,1023.7
2023-01-23T01:58:49.204Z,1023.69
2023-01-23T01:59:29.703Z,1023.71
2023-01-23T02:00:10.250Z,1023.74
2023-01-23T02:00:50.713Z,1023.72
2023-01-23T02:01:31.160Z,1023.72
2023-01-23T02:02:11.784Z,1023.71
2023-01-23T02:02:52.081Z,1023.73
2023-01-23T02:03:32.596Z,1023.76
2023-01-23T02:04:13.119Z,1023.76
2023-01-23T02:04:53.563Z,1023.77
2023-01-23T02:05:34.074Z,1023.74
2023-01-23T02:06:14.546Z,1023.77
2023-01-23T02:06:55.032Z,1023.8
2023-01-23T02:07:35.552Z,1023.76
2023-01-23T02:08:16.008Z,1023.8
2023-01-23T02:08:56.507Z,1023.77
2023-01-23T02:09:36.994Z,1023.77
2023-01-23T02:10:17.760Z,1023.79
2023-01-23T02:10:58.022Z,1023.79
2023-01-23T02:11:38.487Z,1023.79
2023-01-23T02:12:18.954Z,1023.81
2023-01-23T02:12:59.429Z,1023.8
2023-01-23T02:13:40.008Z,1023.8
2023-01-23T02:14:20.438Z,1023.8
2023-01-23T02:15:00.914Z,1023.81
2023-01-23T02:15:41.390Z,1023.81
2023-01-23T02:16:21.949Z,1023.82
2023-01-23T02:17:02.364Z,1023.86
2023-01-23T02:17:42.961Z,1023.85
2023-01-23T02:18:23.325Z,1023.84
2023-01-23T02:19:44.278Z,1023.82
2023-01-23T02:20:24.768Z,1023.86
2023-01-23T02:21:05.236Z,1023.85
2023-01-23T02:21:45.745Z,1023.83
2023-01-23T02:22:26.976Z,1023.87
2023-01-23T02:23:07.462Z,1023.81
2023-01-23T02:23:47.952Z,1023.84
2023-01-23T02:24:28.425Z,1023.81
2023-01-23T02:25:08.908Z,1023.81
2023-01-23T02:25:49.368Z,1023.8
2023-01-23T02:26:29.844Z,1023.79
2023-01-23T02:27:10.348Z,1023.77
2023-01-23T02:27:50.825Z,1023.73
2023-01-23T02:28:31.305Z,1023.78
2023-01-23T02:29:11.785Z,1023.79
2023-01-23T02:29:52.267Z,1023.78
2023-01-23T02:32:20.241Z,1023.83
2023-01-23T02:33:00.825Z,1023.81
2023-01-23T02:33:41.187Z,1023.81
2023-01-23T02:34:21.665Z,1023.83
2023-01-23T02:35:02.160Z,1023.83
2023-01-23T02:35:42.646Z,1023.84
2023-01-23T02:36:23.099Z,1023.87
2023-01-23T02:37:03.556Z,1023.86
2023-01-23T02:37:44.023Z,1023.85
2023-01-23T02:38:24.520Z,1023.82
2023-01-23T02:39:05.011Z,1023.87
2023-01-23T02:39:45.495Z,1023.88
2023-01-23T02:40:26.007Z,1023.83
2023-01-23T02:41:07.087Z,1023.91
2023-01-23T02:41:47.666Z,1023.84
2023-01-23T02:42:28.086Z,1023.83
2023-01-23T02:43:08.618Z,1023.84
2023-01-23T02:43:49.102Z,1023.81
2023-01-23T02:45:10.106Z,1023.83
2023-01-23T02:45:50.687Z,1023.84
2023-01-23T02:46:31.127Z,1023.81
2023-01-23T02:47:11.764Z,1023.82
2023-01-23T02:47:52.106Z,1023.83
2023-01-23T02:48:32.755Z,1023.84
2023-01-23T02:49:13.133Z,1023.81
2023-01-23T02:49:53.643Z,1023.8
2023-01-23T02:50:34.137Z,1023.82
2023-01-23T02:51:14.714Z,1023.82
2023-01-23T02:51:55.209Z,1023.81
2023-01-23T02:52:35.617Z,1023.83
2023-01-23T02:53:16.135Z,1023.85
2023-01-23T02:53:56.625Z,1023.85
2023-01-23T02:54:37.243Z,1023.87
2023-01-23T02:55:17.627Z,1023.8
2023-01-23T02:55:58.101Z,1023.87
2023-01-23T02:56:38.558Z,1023.82
2023-01-23T02:57:19.053Z,1023.87
2023-01-23T02:57:59.532Z,1023.87
2023-01-23T02:58:40.067Z,1023.86
2023-01-23T02:59:20.525Z,1023.86
2023-01-23T03:00:01.024Z,1023.88
2023-01-23T03:00:41.525Z,1023.84
2023-01-23T03:01:22.051Z,1023.83
2023-01-23T03:02:02.587Z,1023.8
2023-01-23T03:02:42.999Z,1023.8
2023-01-23T03:03:23.522Z,1023.82
2023-01-23T03:04:04.119Z,1023.8
2023-01-23T03:04:44.600Z,1023.79
2023-01-23T03:05:25.008Z,1023.77
2023-01-23T03:06:05.496Z,1023.79
2023-01-23T03:06:45.988Z,1023.78
2023-01-23T03:07:26.499Z,1023.76
2023-01-23T03:08:06.995Z,1023.72
2023-01-23T03:08:47.720Z,1023.77
2023-01-23T03:09:28.729Z,1023.77
2023-01-23T03:10:09.245Z,1023.75
2023-01-23T03:10:49.751Z,1023.74
2023-01-23T03:11:30.245Z,1023.72
2023-01-23T03:12:10.729Z,1023.72
2023-01-23T03:12:51.243Z,1023.75
2023-01-23T03:13:31.710Z,1023.75
2023-01-23T03:14:12.219Z,1023.73
2023-01-23T03:14:52.723Z,1023.75
2023-01-23T03:15:33.194Z,1023.72
2023-01-23T03:16:13.704Z,1023.76
2023-01-23T03:16:54.249Z,1023.73
2023-01-23T03:17:34.606Z,1023.75
2023-01-23T03:18:15.120Z,1023.69
2023-01-23T03:18:55.549Z,1023.62
2023-01-23T03:19:36.170Z,1023.68
2023-01-23T03:20:16.596Z,1023.67
2023-01-23T03:20:57.013Z,1023.7
2023-01-23T03:21:37.512Z,1023.63
2023-01-23T03:22:18.027Z,1023.69
2023-01-23T03:22:58.518Z,1023.66
2023-01-23T03:23:38.993Z,1023.68
2023-01-23T03:24:19.482Z,1023.69
2023-01-23T03:25:40.984Z,1023.65
2023-01-23T03:26:21.428Z,1023.69
2023-01-23T03:27:01.972Z,1023.66
2023-01-23T03:27:42.431Z,1023.62
2023-01-23T03:28:22.948Z,1023.67
2023-01-23T03:29:03.459Z,1023.66
2023-01-23T03:29:43.940Z,1023.63
2023-01-23T03:30:24.420Z,1023.54
2023-01-23T03:31:04.972Z,1023.57
2023-01-23T03:31:45.489Z,1023.51
2023-01-23T03:32:25.901Z,1023.56
2023-01-23T03:33:06.392Z,1023.53
2023-01-23T03:33:46.866Z,1023.57
2023-01-23T03:34:27.396Z,1023.58
2023-01-23T03:35:07.999Z,1023.57
2023-01-23T03:35:48.395Z,1023.58
2023-01-23T03:36:28.895Z,1023.6
2023-01-23T03:37:09.412Z,1023.62
2023-01-23T03:38:30.378Z,1023.62
2023-01-23T03:39:10.863Z,1023.67
2023-01-23T03:39:51.358Z,1023.64
2023-01-23T03:40:31.885Z,1023.63
2023-01-23T03:41:12.332Z,1023.64
2023-01-23T03:41:52.842Z,1023.68
2023-01-23T03:42:33.355Z,1023.66
2023-01-23T03:43:13.908Z,1023.7
2023-01-23T03:46:27.444Z,1023.7
2023-01-23T03:47:08.066Z,1023.75
2023-01-23T03:47:48.573Z,1023.77
2023-01-23T03:48:29.091Z,1023.78
2023-01-23T03:49:09.540Z,1023.81
2023-01-23T03:49:50.040Z,1023.78
2023-01-23T03:50:30.637Z,1023.81
2023-01-23T03:51:11.004Z,1023.83
2023-01-23T03:51:51.485Z,1023.8
2023-01-23T03:52:31.983Z,1023.81
2023-01-23T03:53:12.474Z,1023.79
2023-01-23T03:53:53.064Z,1023.8
2023-01-23T03:54:33.541Z,1023.8
2023-01-23T03:55:13.999Z,1023.81
2023-01-23T03:55:54.491Z,1023.86
2023-01-23T03:56:35.093Z,1023.84
2023-01-23T03:57:15.570Z,1023.88
2023-01-23T03:57:56.074Z,1023.91
2023-01-23T03:58:36.535Z,1023.93
2023-01-23T03:59:17.004Z,1023.9
2023-01-23T03:59:57.535Z,1023.89
2023-01-23T04:01:18.556Z,1023.9
2023-01-23T04:01:58.978Z,1023.94
2023-01-23T04:02:39.476Z,1023.94
2023-01-23T04:03:19.966Z,1023.96
2023-01-23T04:04:00.464Z,1023.92
2023-01-23T04:04:40.928Z,1023.92
2023-01-23T04:05:21.418Z,1023.93
2023-01-23T04:06:02.038Z,1023.92
2023-01-23T04:06:42.435Z,1023.92
2023-01-23T04:07:22.920Z,1023.91
2023-01-23T04:08:03.368Z,1023.88
2023-01-23T04:08:43.883Z,1023.93
2023-01-23T04:09:24.352Z,1023.91
2023-01-23T04:10:04.829Z,1023.93
2023-01-23T04:10:45.354Z,1023.9
2023-01-23T04:11:25.865Z,1023.9
2023-01-23T04:12:06.353Z,1023.9
2023-01-23T04:12:46.844Z,1023.9
2023-01-23T04:13:27.320Z,1023.9
2023-01-23T04:14:07.803Z,1023.93
2023-01-23T04:14:48.295Z,1023.92
2023-01-23T04:15:28.787Z,1023.93
2023-01-23T04:16:09.307Z,1023.98
2023-01-23T04:16:49.787Z,1023.97
2023-01-23T04:17:30.262Z,1024.01
2023-01-23T04:18:51.316Z,1023.99
2023-01-23T04:19:31.759Z,1023.98
2023-01-23T04:20:12.214Z,1024.02
2023-01-23T04:20:52.711Z,1024.01
2023-01-23T04:21:33.309Z,1023.99
2023-01-23T04:22:13.696Z,1024.03
2023-01-23T04:22:54.200Z,1023.99
2023-01-23T04:23:34.691Z,1024.02
2023-01-23T04:24:15.224Z,1024.02
2023-01-23T04:24:55.804Z,1024.06
2023-01-23T04:25:36.235Z,1024.03
2023-01-23T04:26:16.689Z,1024.07
2023-01-23T04:26:57.214Z,1024
2023-01-23T04:27:37.652Z,1024.06
2023-01-23T04:28:18.158Z,1024.09
2023-01-23T04:28:58.670Z,1024.07
2023-01-23T04:29:39.154Z,1024.06
2023-01-23T04:30:20.017Z,1024.07
2023-01-23T04:31:01.498Z,1024.07
2023-01-23T04:31:40.762Z,1024.09
2023-01-23T04:32:21.127Z,1024.05
2023-01-23T04:33:01.610Z,1024.1
2023-01-23T04:33:42.141Z,1024.08
2023-01-23T04:34:22.651Z,1024.07
2023-01-23T04:35:03.140Z,1024.06
2023-01-23T04:35:43.578Z,1024.05
2023-01-23T04:36:24.077Z,1024.01
2023-01-23T04:37:04.689Z,1024
2023-01-23T04:37:45.063Z,1024.02
2023-01-23T04:38:25.537Z,1023.99
2023-01-23T04:39:06.027Z,1024.01
2023-01-23T04:39:46.539Z,1023.95
2023-01-23T04:40:27.032Z,1023.93
2023-01-23T04:41:07.553Z,1023.97
2023-01-23T04:41:48.036Z,1023.98
2023-01-23T04:42:28.586Z,1023.96
2023-01-23T04:43:49.586Z,1023.95
2023-01-23T04:44:30.113Z,1023.94
2023-01-23T04:45:10.637Z,1023.94
2023-01-23T04:45:51.129Z,1023.94
2023-01-23T04:46:31.808Z,1023.96
2023-01-23T04:47:12.346Z,1023.9
2023-01-23T04:47:52.852Z,1023.94
2023-01-23T04:48:33.423Z,1023.9
2023-01-23T04:49:13.917Z,1023.85
2023-01-23T04:49:54.509Z,1023.88
2023-01-23T04:50:34.986Z,1023.87
2023-01-23T04:51:15.502Z,1023.84
2023-01-23T04:51:55.946Z,1023.84
2023-01-23T04:52:36.553Z,1023.8
2023-01-23T04:53:16.976Z,1023.79
2023-01-23T04:53:57.435Z,1023.79
2023-01-23T04:54:37.941Z,1023.77
2023-01-23T04:55:18.432Z,1023.77
2023-01-23T04:55:58.945Z,1023.77
2023-01-23T04:56:39.388Z,1023.8
2023-01-23T04:57:19.903Z,1023.79
2023-01-23T04:58:00.495Z,1023.79
2023-01-23T04:58:40.988Z,1023.79
2023-01-23T04:59:21.499Z,1023.81
2023-01-23T05:00:01.987Z,1023.76
2023-01-23T05:00:42.509Z,1023.81
2023-01-23T05:01:23.060Z,1023.84
2023-01-23T05:02:03.519Z,1023.8
2023-01-23T05:02:44.030Z,1023.83
2023-01-23T05:03:25.101Z,1023.85
2023-01-23T05:04:05.792Z,1023.86
2023-01-23T05:04:46.344Z,1023.86
2023-01-23T05:05:26.822Z,1023.87
2023-01-23T05:06:07.291Z,1023.87
2023-01-23T05:06:47.839Z,1023.86
2023-01-23T05:07:28.332Z,1023.91
2023-01-23T05:08:51.489Z,1023.91
2023-01-23T05:09:29.901Z,1023.9
2023-01-23T05:10:10.519Z,1023.9
2023-01-23T05:10:50.977Z,1023.96
2023-01-23T05:11:31.483Z,1023.92
2023-01-23T05:12:11.996Z,1023.88
2023-01-23T05:12:52.457Z,1023.92
2023-01-23T05:13:32.976Z,1023.92
2023-01-23T05:14:13.448Z,1023.94
2023-01-23T05:14:53.989Z,1023.92
2023-01-23T05:15:34.481Z,1023.91
2023-01-23T05:16:14.967Z,1023.92
2023-01-23T05:16:55.521Z,1023.93
2023-01-23T05:17:36.036Z,1023.92
2023-01-23T05:18:16.536Z,1023.94
2023-01-23T05:18:57.029Z,1023.93
2023-01-23T05:19:37.556Z,1023.9
2023-01-23T05:20:18.252Z,1023.92
2023-01-23T05:20:58.530Z,1023.9
2023-01-23T05:21:39.027Z,1023.87
2023-01-23T05:22:20.981Z,1023.89
2023-01-23T05:23:01.569Z,1023.91
2023-01-23T05:23:42.201Z,1023.91
2023-01-23T05:24:22.622Z,1023.91
2023-01-23T05:25:03.164Z,1023.92
2023-01-23T05:25:43.709Z,1023.91
2023-01-23T05:26:24.225Z,1023.88
2023-01-23T05:27:04.783Z,1023.9
2023-01-23T05:27:45.262Z,1023.91
2023-01-23T05:28:25.813Z,1023.95
2023-01-23T05:29:06.273Z,1023.9
2023-01-23T05:29:46.767Z,1023.97
2023-01-23T05:30:27.358Z,1023.94
2023-01-23T05:31:07.945Z,1023.96
2023-01-23T05:31:48.401Z,1023.91
2023-01-23T05:32:28.827Z,1023.96
2023-01-23T05:33:09.355Z,1023.95
2023-01-23T05:33:49.899Z,1023.94
2023-01-23T05:34:30.399Z,1023.96
2023-01-23T05:35:10.889Z,1023.94
2023-01-23T05:35:51.467Z,1023.98
2023-01-23T05:36:32.019Z,1024.01
2023-01-23T05:37:12.581Z,1024.01
2023-01-23T05:37:53.022Z,1024.02
2023-01-23T05:38:33.561Z,1024.07
2023-01-23T05:39:14.220Z,1024.05
2023-01-23T05:39:54.761Z,1024.06
2023-01-23T05:40:35.182Z,1024.05
2023-01-23T05:41:15.661Z,1024.05
2023-01-23T05:41:56.214Z,1024
2023-01-23T05:45:30.132Z,1024.07
2023-01-23T05:46:10.626Z,1024.09
2023-01-23T05:46:51.104Z,1024.09
2023-01-23T05:47:31.626Z,1024.12
2023-01-23T05:48:12.148Z,1024.11
2023-01-23T05:48:52.669Z,1024.16
2023-01-23T05:49:33.162Z,1024.15
2023-01-23T05:50:13.690Z,1024.14
2023-01-23T05:51:35.790Z,1024.11
2023-01-23T05:52:16.260Z,1024.14
2023-01-23T05:52:56.913Z,1024.16
2023-01-23T05:53:37.409Z,1024.14
2023-01-23T05:54:18.041Z,1024.1
2023-01-23T06:31:50.847Z,1024.4
2023-01-23T06:32:31.562Z,1024.39
2023-01-23T06:33:12.030Z,1024.38
2023-01-23T06:33:52.567Z,1024.41
2023-01-23T06:34:33.039Z,1024.39
2023-01-23T06:35:13.558Z,1024.42
2023-01-23T06:36:34.549Z,1024.36
2023-01-23T06:37:15.129Z,1024.39
2023-01-23T06:37:55.629Z,1024.41
2023-01-23T06:38:36.171Z,1024.43
2023-01-23T06:39:16.747Z,1024.44
2023-01-23T06:39:57.301Z,1024.44
2023-01-23T06:40:37.865Z,1024.54
2023-01-23T06:43:57.271Z,1024.52
2023-01-23T06:44:44.387Z,1024.55
2023-01-23T06:48:00.078Z,1024.6
2023-01-23T06:48:40.939Z,1024.62
2023-01-23T06:49:21.999Z,1024.67
2023-01-23T06:50:03.136Z,1024.62
2023-01-23T06:50:44.339Z,1024.61
2023-01-23T06:51:28.980Z,1024.69
2023-01-23T06:52:10.109Z,1024.7
2023-01-23T06:52:51.379Z,1024.7
2023-01-23T06:53:32.995Z,1024.72
2023-01-23T06:54:13.732Z,1024.77
2023-01-23T06:54:55.130Z,1024.76
2023-01-23T06:55:36.017Z,1024.76
2023-01-23T06:56:17.241Z,1024.79
2023-01-23T06:56:58.714Z,1024.77
2023-01-23T06:57:39.900Z,1024.81
2023-01-23T07:00:15.391Z,1024.82
2023-01-23T07:00:55.926Z,1024.85
2023-01-23T07:01:36.451Z,1024.86
2023-01-23T07:02:16.915Z,1024.86
2023-01-23T07:02:57.492Z,1024.87
2023-01-23T07:03:38.083Z,1024.91
2023-01-23T07:04:18.437Z,1024.94
2023-01-23T07:04:58.937Z,1024.95
2023-01-23T07:05:39.503Z,1024.93
2023-01-23T07:06:20.016Z,1024.94
2023-01-23T07:07:00.692Z,1024.95
2023-01-23T07:07:41.205Z,1024.93
2023-01-23T07:08:21.741Z,1024.97
2023-01-23T07:09:02.222Z,1024.98
2023-01-23T07:09:42.796Z,1024.98
2023-01-23T07:10:23.217Z,1024.99
2023-01-23T07:11:03.879Z,1025.01
2023-01-23T07:11:44.485Z,1025.03
2023-01-23T07:12:25.053Z,1025.05
2023-01-23T07:13:05.491Z,1025.02
2023-01-23T07:13:46.049Z,1025.02
2023-01-23T07:14:26.827Z,1025.03
2023-01-23T07:15:07.349Z,1025.02
2023-01-23T07:15:47.903Z,1025.09
2023-01-23T07:16:28.450Z,1025.1
2023-01-23T07:17:08.894Z,1025.07
2023-01-23T07:17:49.481Z,1025.16
2023-01-23T07:18:30.040Z,1025.14
2023-01-23T07:19:10.688Z,1025.23
2023-01-23T07:19:51.069Z,1025.23
2023-01-23T07:20:31.585Z,1025.19
2023-01-23T07:21:12.116Z,1025.22
2023-01-23T07:21:52.697Z,1025.16
2023-01-23T07:22:33.305Z,1025.15
2023-01-23T07:23:13.761Z,1025.18
2023-01-23T07:23:54.315Z,1025.19
2023-01-23T07:24:34.816Z,1025.21
2023-01-23T07:25:15.340Z,1025.19
2023-01-23T07:25:55.858Z,1025.25
2023-01-23T07:26:37.167Z,1025.26
2023-01-23T07:27:17.920Z,1025.22
2023-01-23T07:27:58.295Z,1025.25
2023-01-23T07:28:38.870Z,1025.26
2023-01-23T07:29:19.358Z,1025.21
2023-01-23T07:29:59.916Z,1025.25
2023-01-23T07:30:40.463Z,1025.29
2023-01-23T07:31:21.022Z,1025.34
2023-01-23T07:32:01.377Z,1025.3
2023-01-23T07:32:41.900Z,1025.28
2023-01-23T07:33:22.536Z,1025.27
2023-01-23T07:34:03.196Z,1025.31
2023-01-23T07:34:43.844Z,1025.33
2023-01-23T07:35:24.292Z,1025.3
2023-01-23T07:36:04.862Z,1025.3
2023-01-23T07:36:45.418Z,1025.29
2023-01-23T07:37:26.048Z,1025.31
2023-01-23T07:38:06.549Z,1025.3
2023-01-23T07:38:47.120Z,1025.28
2023-01-23T07:39:27.698Z,1025.31
2023-01-23T07:40:08.261Z,1025.34
2023-01-23T07:40:48.807Z,1025.31
2023-01-23T07:41:29.391Z,1025.32
2023-01-23T07:42:09.887Z,1025.3
2023-01-23T07:42:50.367Z,1025.3
2023-01-23T07:43:30.934Z,1025.33
2023-01-23T07:44:11.477Z,1025.28
2023-01-23T07:44:51.981Z,1025.29
2023-01-23T07:45:32.460Z,1025.23
2023-01-23T07:46:13.005Z,1025.27
2023-01-23T07:46:53.522Z,1025.28
2023-01-23T07:47:34.059Z,1025.27
2023-01-23T07:48:14.585Z,1025.32
2023-01-23T07:48:55.223Z,1025.34
2023-01-23T07:49:35.673Z,1025.32
2023-01-23T07:50:16.434Z,1025.31
2023-01-23T07:50:57.119Z,1025.31
2023-01-23T07:51:37.563Z,1025.33
2023-01-23T07:52:18.298Z,1025.33
2023-01-23T07:52:58.926Z,1025.32
2023-01-23T07:53:39.458Z,1025.33
2023-01-23T07:54:20.060Z,1025.32
2023-01-23T07:55:00.635Z,1025.29
2023-01-23T07:55:41.180Z,1025.33
2023-01-23T07:56:21.665Z,1025.33
2023-01-23T07:57:02.203Z,1025.32
2023-01-23T07:57:42.813Z,1025.36
2023-01-23T07:58:23.429Z,1025.11
2023-01-23T07:59:04.111Z,1025.34
2023-01-23T07:59:44.802Z,1025.35
2023-01-23T08:00:27.743Z,1025.36
2023-01-23T08:01:06.149Z,1025.33
2023-01-23T08:01:46.601Z,1025.33
2023-01-23T08:02:27.058Z,1025.34
2023-01-23T08:03:07.742Z,1025.31
2023-01-23T08:03:48.374Z,1025.34
2023-01-23T08:05:09.559Z,1025.33
2023-01-23T08:05:50.432Z,1025.35
2023-01-23T08:06:30.839Z,1025.33
2023-01-23T08:07:11.490Z,1025.35
2023-01-23T08:07:57.914Z,1025.39
2023-01-23T08:08:32.635Z,1025.38
2023-01-23T08:09:13.094Z,1025.42
2023-01-23T08:09:53.649Z,1025.43
2023-01-23T08:10:34.196Z,1025.45
2023-01-23T08:11:15.169Z,1025.42
2023-01-23T08:11:58.810Z,1025.46
2023-01-23T08:12:39.342Z,1025.45
2023-01-23T08:13:20.001Z,1025.43
2023-01-23T08:14:00.562Z,1025.43
2023-01-23T08:14:41.160Z,1025.41
2023-01-23T08:15:21.768Z,1025.4
2023-01-23T08:16:02.567Z,1025.4
2023-01-23T08:16:43.189Z,1025.43
2023-01-23T08:17:23.766Z,1025.43
2023-01-23T08:18:04.277Z,1025.45
2023-01-23T08:18:44.832Z,1025.45
2023-01-23T08:19:25.380Z,1025.45
2023-01-23T08:20:05.885Z,1025.44
2023-01-23T08:20:46.490Z,1025.43
2023-01-23T08:21:27.310Z,1025.4
2023-01-23T08:22:07.608Z,1025.39
2023-01-23T08:22:48.267Z,1025.47
2023-01-23T08:23:28.687Z,1025.46
2023-01-23T08:24:09.245Z,1025.45
2023-01-23T08:24:49.776Z,1025.52
2023-01-23T08:25:30.345Z,1025.54
2023-01-23T08:26:11.028Z,1025.52
2023-01-23T08:26:51.661Z,1025.51
2023-01-23T08:27:32.253Z,1025.52
2023-01-23T08:28:12.949Z,1025.53
2023-01-23T08:28:53.462Z,1025.48
2023-01-23T08:29:34.092Z,1025.5
2023-01-23T08:30:14.650Z,1025.52
2023-01-23T08:30:55.431Z,1025.5
2023-01-23T08:31:35.842Z,1025.48
2023-01-23T08:32:16.442Z,1025.51
2023-01-23T08:32:56.937Z,1025.51
2023-01-23T08:36:11.415Z,1025.46
2023-01-23T08:36:51.876Z,1025.48
2023-01-23T08:37:32.247Z,1025.47
2023-01-23T08:38:14.003Z,1025.44
2023-01-23T08:40:13.069Z,1025.47
2023-01-23T08:40:54.968Z,1025.48
2023-01-23T08:41:36.790Z,1025.52
2023-01-23T08:42:19.996Z,1025.49
2023-01-23T08:43:01.508Z,1025.52
2023-01-23T08:43:44.031Z,1025.54
2023-01-23T08:44:25.959Z,1025.55
2023-01-23T08:45:08.756Z,1025.56
2023-01-23T08:45:49.929Z,1025.54
2023-01-23T08:46:32.674Z,1025.53
2023-01-23T08:47:14.419Z,1025.5
2023-01-23T08:47:57.672Z,1025.48
2023-01-23T08:48:38.674Z,1025.48
2023-01-23T08:49:25.931Z,1025.47
2023-01-23T08:50:12.004Z,1025.45
2023-01-23T08:50:50.441Z,1025.48
2023-01-23T08:51:34.078Z,1025.44
2023-01-23T08:52:18.767Z,1025.42
2023-01-23T08:53:01.991Z,1025.41
2023-01-23T08:53:45.302Z,1025.4
2023-01-23T08:54:28.856Z,1025.41
2023-01-23T08:55:10.845Z,1025.38
2023-01-23T08:58:16.218Z,1025.39
2023-01-23T08:58:59.844Z,1025.42
2023-01-23T08:59:39.468Z,1025.44
2023-01-23T09:00:20.484Z,1025.4
2023-01-23T09:01:02.160Z,1025.41
2023-01-23T09:01:43.648Z,1025.46
2023-01-23T09:03:42.462Z,1025.44
2023-01-23T09:04:23.858Z,1025.44
2023-01-23T09:05:06.454Z,1025.48
2023-01-23T09:05:47.432Z,1025.47
2023-01-23T09:06:29.290Z,1025.5
2023-01-23T09:07:10.147Z,1025.51
2023-01-23T09:07:51.548Z,1025.54
2023-01-23T09:13:47.581Z,1025.59
2023-01-23T09:14:31.162Z,1025.63
2023-01-23T09:15:11.615Z,1025.65
2023-01-23T09:15:53.204Z,1025.61
2023-01-23T09:16:34.980Z,1025.63
2023-01-23T09:17:15.751Z,1025.66
2023-01-23T09:17:59.337Z,1025.66
2023-01-23T09:21:13.984Z,1025.69
2023-01-23T09:21:54.751Z,1025.69
2023-01-23T09:22:42.287Z,1025.67
2023-01-23T09:25:36.722Z,1025.72
2023-01-23T09:26:19.809Z,1025.69
2023-01-23T09:26:58.291Z,1025.7
2023-01-23T09:27:38.935Z,1025.7
2023-01-23T09:29:58.237Z,1025.73
2023-01-23T09:30:48.272Z,1025.72
2023-01-23T09:31:29.813Z,1025.72
2023-01-23T09:32:12.379Z,1025.69
2023-01-23T09:32:52.966Z,1025.74
2023-01-23T09:33:33.510Z,1025.74
2023-01-23T09:34:16.186Z,1025.74
2023-01-23T09:34:54.662Z,1025.75
2023-01-23T09:35:35.259Z,1025.76
2023-01-23T09:36:15.955Z,1025.76
2023-01-23T09:36:56.441Z,1025.74
2023-01-23T09:37:36.953Z,1025.78
2023-01-23T09:38:17.507Z,1025.79
2023-01-23T09:38:58.151Z,1025.8
2023-01-23T09:39:38.703Z,1025.81
2023-01-23T09:40:19.532Z,1025.8
2023-01-23T09:41:00.885Z,1025.82
2023-01-23T09:41:41.335Z,1025.77
2023-01-23T09:42:21.916Z,1025.81
2023-01-23T09:43:59.916Z,1025.81
2023-01-23T09:44:41.300Z,1025.82
2023-01-23T09:45:21.843Z,1025.81
2023-01-23T09:46:02.526Z,1025.81
2023-01-23T09:46:43.280Z,1025.87
2023-01-23T09:47:23.811Z,1025.8
2023-01-23T09:48:04.368Z,1025.8
2023-01-23T09:51:33.399Z,1025.79
2023-01-23T09:52:14.555Z,1025.84
2023-01-23T09:52:55.150Z,1025.84
2023-01-23T09:53:35.656Z,1025.81
2023-01-23T09:54:16.270Z,1025.82
2023-01-23T09:54:57.021Z,1025.82
2023-01-23T09:55:37.907Z,1025.82
2023-01-23T09:56:18.682Z,1025.81
2023-01-23T09:56:59.316Z,1025.84
2023-01-23T09:57:39.874Z,1025.84
2023-01-23T09:58:21.226Z,1025.86
2023-01-23T09:59:01.788Z,1025.89
2023-01-23T10:02:37.536Z,1025.89
2023-01-23T10:03:18.184Z,1025.94
2023-01-23T10:03:58.824Z,1025.91
2023-01-23T10:04:39.395Z,1025.97
2023-01-23T10:05:20.093Z,1025.92
2023-01-23T10:06:01.215Z,1025.93
2023-01-23T10:06:41.797Z,1025.95
2023-01-23T10:07:22.411Z,1025.94
2023-01-23T10:08:03.376Z,1025.95
2023-01-23T10:08:43.897Z,1025.94
2023-01-23T10:09:24.634Z,1025.91
2023-01-23T10:10:06.994Z,1025.93
2023-01-23T10:10:45.714Z,1025.93
2023-01-23T10:11:26.443Z,1025.9
2023-01-23T10:12:07.101Z,1025.89